createdAt,value
2023-03-26T17:44:53.224Z,21.85
2023-03-26T17:46:02.506Z,21.93
2023-03-26T17:47:08.792Z,21.91
2023-03-26T17:48:13.953Z,21.96
2023-03-26T17:49:19.169Z,21.98
2023-03-26T17:50:24.381Z,21.94
2023-03-26T17:51:29.651Z,21.94
2023-03-26T17:52:34.914Z,21.97
2023-03-26T17:53:40.101Z,21.95
2023-03-26T17:54:45.312Z,21.98
2023-03-26T17:55:51.254Z,21.97
2023-03-26T17:56:56.710Z,21.97
2023-03-26T17:58:02.084Z,21.92
2023-03-26T17:59:11.406Z,21.93
2023-03-26T18:00:17.477Z,21.97
2023-03-26T18:01:22.702Z,21.96
2023-03-26T18:02:28.129Z,21.96
2023-03-26T18:03:33.643Z,21.96
2023-03-26T18:04:39.115Z,21.92
2023-03-26T18:05:44.352Z,21.97
2023-03-26T18:06:49.530Z,21.92
2023-03-26T18:07:54.711Z,21.97
2023-03-26T18:08:59.930Z,21.93
2023-03-26T18:10:07.570Z,21.92
2023-03-26T18:11:12.768Z,21.96
2023-03-26T18:12:18.033Z,21.91
2023-03-26T18:13:23.234Z,21.96
2023-03-26T18:14:28.444Z,21.91
2023-03-26T18:15:33.627Z,21.95
2023-03-26T18:16:38.856Z,21.91
2023-03-26T18:17:44.196Z,21.94
2023-03-26T18:18:49.586Z,21.92
2023-03-26T18:19:54.770Z,21.91
2023-03-26T18:21:01.854Z,21.96
2023-03-26T18:22:07.733Z,21.95
2023-03-26T18:23:12.950Z,21.95
2023-03-26T18:24:18.163Z,21.96
2023-03-26T18:25:23.361Z,21.93
2023-03-26T18:26:28.568Z,21.99
2023-03-26T18:27:33.776Z,22
2023-03-26T18:28:39.021Z,22.01
2023-03-26T18:29:44.243Z,22.02
2023-03-26T18:30:49.450Z,22.03
2023-03-26T18:31:54.671Z,22.05
2023-03-26T18:33:00.687Z,22.01
2023-03-26T18:34:06.131Z,22.02
2023-03-26T18:35:11.374Z,22.05
2023-03-26T18:36:16.593Z,22.05
2023-03-26T18:37:21.849Z,22.05
2023-03-26T18:38:35.187Z,22.03
2023-03-26T18:39:45.707Z,22.1
2023-03-26T18:40:51.043Z,22.09
2023-03-26T18:41:56.706Z,22.09
2023-03-26T18:43:01.895Z,22.06
2023-03-26T18:44:07.081Z,22.08
2023-03-26T18:45:12.276Z,22.12
2023-03-26T18:46:17.493Z,22.13
2023-03-26T18:47:22.781Z,22.15
2023-03-26T18:48:33.004Z,22.13
2023-03-26T18:49:38.223Z,22.14
2023-03-26T18:50:43.417Z,22.15
2023-03-26T18:51:56.453Z,22.13
2023-03-26T18:53:02.361Z,22.16
2023-03-26T18:54:07.572Z,22.12
2023-03-26T18:55:12.837Z,22.16
2023-03-26T18:56:18.100Z,22.17
2023-03-26T18:57:23.346Z,22.12
2023-03-26T18:58:28.821Z,22.14
2023-03-26T18:59:34.108Z,22.12
2023-03-26T19:00:43.597Z,22.12
2023-03-26T19:01:48.830Z,22.12
2023-03-26T19:02:54.203Z,22.12
2023-03-26T19:03:59.706Z,22.12
2023-03-26T19:05:04.913Z,22.1
2023-03-26T19:06:10.134Z,22.06
2023-03-26T19:07:15.322Z,22.09
2023-03-26T19:08:20.747Z,22.09
2023-03-26T19:09:31.900Z,22.04
2023-03-26T19:10:37.928Z,22.03
2023-03-26T19:11:43.180Z,22.02
2023-03-26T19:12:48.372Z,22.06
2023-03-26T19:13:53.563Z,22.06
2023-03-26T19:14:59.192Z,22.06
2023-03-26T19:16:04.426Z,22.05
2023-03-26T19:17:09.664Z,22.05
2023-03-26T19:18:14.904Z,22.05
2023-03-26T19:19:20.141Z,22
2023-03-26T19:20:25.340Z,22.04
2023-03-26T19:21:30.565Z,22.04
2023-03-26T19:22:35.780Z,22.03
2023-03-26T19:23:40.996Z,21.98
2023-03-26T19:24:46.192Z,22.02
2023-03-26T19:25:51.380Z,22.01
2023-03-26T19:26:56.615Z,22
2023-03-26T19:28:01.810Z,22.01
2023-03-26T19:29:07.206Z,21.98
2023-03-26T19:30:12.429Z,22
2023-03-26T19:31:17.604Z,21.99
2023-03-26T19:32:22.968Z,21.99
2023-03-26T19:33:28.263Z,21.99
2023-03-26T19:34:33.496Z,21.94
2023-03-26T19:35:38.796Z,21.99
2023-03-26T19:36:44.082Z,21.98
2023-03-26T19:37:49.366Z,21.94
2023-03-26T19:39:05.933Z,21.98
2023-03-26T19:40:13.850Z,21.99
2023-03-26T19:41:19.141Z,21.99
2023-03-26T19:42:24.326Z,21.99
2023-03-26T19:43:45.518Z,21.98
2023-03-26T19:44:50.698Z,21.98
2023-03-26T19:45:59.414Z,21.93
2023-03-26T19:47:05.999Z,21.97
2023-03-26T19:48:15.236Z,21.97
2023-03-26T19:49:47.522Z,21.98
2023-03-26T19:50:52.723Z,21.93
2023-03-26T19:51:58.485Z,21.93
2023-03-26T19:53:15.140Z,21.98
2023-03-26T19:54:21.927Z,21.93
2023-03-26T19:55:27.120Z,21.98
2023-03-26T19:56:32.335Z,21.97
2023-03-26T19:57:37.624Z,21.92
2023-03-26T19:58:42.861Z,21.97
2023-03-26T19:59:50.774Z,21.93
2023-03-26T20:00:56.583Z,21.97
2023-03-26T20:02:02.635Z,21.97
2023-03-26T20:03:09.957Z,21.97
2023-03-26T20:04:15.344Z,21.92
2023-03-26T20:05:20.575Z,21.96
2023-03-26T20:06:34.444Z,21.92
2023-03-26T20:07:48.032Z,21.92
2023-03-26T20:08:53.447Z,21.97
2023-03-26T20:09:58.747Z,21.92
2023-03-26T20:11:05.793Z,21.91
2023-03-26T20:12:10.994Z,21.96
2023-03-26T20:13:16.187Z,21.91
2023-03-26T20:14:21.382Z,21.96
2023-03-26T20:15:26.579Z,21.96
2023-03-26T20:16:32.017Z,21.96
2023-03-26T20:17:37.731Z,21.96
2023-03-26T20:18:43.047Z,21.86
2023-03-26T20:19:48.225Z,21.91
2023-03-26T20:20:53.454Z,21.95
2023-03-26T20:21:59.086Z,21.95
2023-03-26T20:23:04.277Z,21.95
2023-03-26T20:24:09.505Z,21.91
2023-03-26T20:25:14.709Z,21.95
2023-03-26T20:26:19.904Z,21.95
2023-03-26T20:27:25.100Z,21.95
2023-03-26T20:29:50.690Z,21.95
2023-03-26T20:30:56.089Z,21.9
2023-03-26T20:32:02.264Z,21.89
2023-03-26T20:33:11.643Z,21.94
2023-03-26T20:34:18.873Z,21.88
2023-03-26T20:35:35.749Z,21.92
2023-03-26T20:36:41.552Z,21.93
2023-03-26T20:37:47.019Z,21.88
2023-03-26T20:38:52.221Z,21.92
2023-03-26T20:39:57.435Z,21.92
2023-03-26T20:41:02.660Z,21.92
2023-03-26T20:42:07.882Z,21.88
2023-03-26T20:43:13.113Z,21.91
2023-03-26T20:44:18.308Z,21.92
2023-03-26T20:45:23.500Z,21.91
2023-03-26T20:46:30.769Z,21.91
2023-03-26T20:47:36.672Z,21.91
2023-03-26T20:48:42.021Z,21.92
2023-03-26T20:49:47.219Z,21.91
2023-03-26T20:50:52.427Z,21.87
2023-03-26T20:51:57.631Z,21.91
2023-03-26T20:53:02.841Z,21.91
2023-03-26T20:54:08.106Z,21.91
2023-03-26T20:55:13.330Z,21.9
2023-03-26T20:56:18.618Z,21.86
2023-03-26T20:57:23.835Z,21.86
2023-03-26T20:58:30.911Z,21.9
2023-03-26T20:59:37.154Z,21.9
2023-03-26T21:00:42.707Z,21.86
2023-03-26T21:01:48.226Z,21.89
2023-03-26T21:02:53.916Z,21.9
2023-03-26T21:03:59.623Z,21.9
2023-03-26T21:05:04.841Z,21.85
2023-03-26T21:06:10.137Z,21.89
2023-03-26T21:07:18.373Z,21.88
2023-03-26T21:08:25.089Z,21.88
2023-03-26T21:09:30.324Z,21.88
2023-03-26T21:10:35.614Z,21.87
2023-03-26T21:11:40.821Z,21.84
2023-03-26T21:12:49.224Z,21.88
2023-03-26T21:13:54.428Z,21.83
2023-03-26T21:15:00.463Z,21.83
2023-03-26T21:16:25.465Z,21.83
2023-03-26T21:17:30.779Z,21.87
2023-03-26T21:18:36.134Z,21.87
2023-03-26T21:19:41.814Z,21.86
2023-03-26T21:20:47.034Z,21.85
2023-03-26T21:21:52.228Z,21.86
2023-03-26T21:22:57.482Z,21.87
2023-03-26T21:24:02.694Z,21.86
2023-03-26T21:25:07.929Z,21.82
2023-03-26T21:26:13.267Z,21.82
2023-03-26T21:27:18.471Z,21.86
2023-03-26T21:28:28.830Z,21.86
2023-03-26T21:29:46.140Z,21.86
2023-03-26T21:30:51.356Z,21.86
2023-03-26T21:31:56.588Z,21.86
2023-03-26T21:33:01.938Z,21.86
2023-03-26T21:34:07.336Z,21.85
2023-03-26T21:35:12.569Z,21.85
2023-03-26T21:36:18.219Z,21.85
2023-03-26T21:37:24.655Z,21.85
2023-03-26T21:38:29.945Z,21.84
2023-03-26T21:39:35.116Z,21.85
2023-03-26T21:40:42.370Z,21.84
2023-03-26T21:42:04.626Z,21.84
2023-03-26T21:43:10.883Z,21.84
2023-03-26T21:44:16.107Z,21.84
2023-03-26T21:45:21.322Z,21.83
2023-03-26T21:46:26.533Z,21.83
2023-03-26T21:47:31.926Z,21.84
2023-03-26T21:48:37.217Z,21.79
2023-03-26T21:49:42.416Z,21.83
2023-03-26T21:50:47.599Z,21.79
2023-03-26T21:51:52.840Z,21.78
2023-03-26T21:52:58.050Z,21.83
2023-03-26T21:54:03.273Z,21.83
2023-03-26T21:55:08.490Z,21.78
2023-03-26T21:56:13.708Z,21.83
2023-03-26T21:57:18.935Z,21.81
2023-03-26T21:58:24.209Z,21.83
2023-03-26T21:59:29.445Z,21.77
2023-03-26T22:00:43.005Z,21.82
2023-03-26T22:02:01.626Z,21.78
2023-03-26T22:03:06.864Z,21.81
2023-03-26T22:04:12.763Z,21.81
2023-03-26T22:05:17.933Z,21.81
2023-03-26T22:06:23.145Z,21.81
2023-03-26T22:07:28.342Z,21.81
2023-03-26T22:08:33.506Z,21.81
2023-03-26T22:09:38.715Z,21.8
2023-03-26T22:10:43.919Z,21.8
2023-03-26T22:11:49.136Z,21.8
2023-03-26T22:12:54.318Z,21.79
2023-03-26T22:13:59.560Z,21.8
2023-03-26T22:15:04.806Z,21.8
2023-03-26T22:16:10.049Z,21.76
2023-03-26T22:17:15.495Z,21.8
2023-03-26T22:18:20.694Z,21.8
2023-03-26T22:19:25.895Z,21.79
2023-03-26T22:20:34.024Z,21.79
2023-03-26T22:21:39.236Z,21.76
2023-03-26T22:22:44.426Z,21.8
2023-03-26T22:23:49.608Z,21.79
2023-03-26T22:24:54.788Z,21.74
2023-03-26T22:26:00.009Z,21.79
2023-03-26T22:27:05.205Z,21.79
2023-03-26T22:28:10.548Z,21.78
2023-03-26T22:29:15.732Z,21.79
2023-03-26T22:30:21.004Z,21.78
2023-03-26T22:31:26.379Z,21.79
2023-03-26T22:32:32.733Z,21.78
2023-03-26T22:33:38.512Z,21.76
2023-03-26T22:34:43.711Z,21.77
2023-03-26T22:35:48.934Z,21.77
2023-03-26T22:36:54.300Z,21.77
2023-03-26T22:38:00.607Z,21.73
2023-03-26T22:39:06.351Z,21.77
2023-03-26T22:40:11.582Z,21.76
2023-03-26T22:41:16.818Z,21.76
2023-03-26T22:42:22.023Z,21.76
2023-03-26T22:43:27.191Z,21.76
2023-03-26T22:44:32.393Z,21.76
2023-03-26T22:45:37.736Z,21.77
2023-03-26T22:46:43.005Z,21.77
2023-03-26T22:47:48.384Z,21.77
2023-03-26T22:48:53.754Z,21.77
2023-03-26T22:49:58.970Z,21.76
2023-03-26T22:51:04.151Z,21.73
2023-03-26T22:52:09.313Z,21.72
2023-03-26T22:53:14.504Z,21.77
2023-03-26T22:54:19.682Z,21.77
2023-03-26T22:55:28.577Z,21.76
2023-03-26T22:56:34.986Z,21.72
2023-03-26T22:57:40.269Z,21.77
2023-03-26T22:58:45.554Z,21.77
2023-03-26T22:59:50.769Z,21.77
2023-03-26T23:00:56.285Z,21.72
2023-03-26T23:02:02.781Z,21.72
2023-03-26T23:03:08.162Z,21.76
2023-03-26T23:04:13.464Z,21.76
2023-03-26T23:05:36.720Z,21.76
2023-03-26T23:06:41.918Z,21.75
2023-03-26T23:07:47.098Z,21.76
2023-03-26T23:08:52.319Z,21.76
2023-03-26T23:09:57.537Z,21.75
2023-03-26T23:11:02.796Z,21.75
2023-03-26T23:12:07.979Z,21.75
2023-03-26T23:13:13.174Z,21.75
2023-03-26T23:14:18.336Z,21.76
2023-03-26T23:15:23.551Z,21.75
2023-03-26T23:16:28.839Z,21.74
2023-03-26T23:17:34.254Z,21.74
2023-03-26T23:18:39.602Z,21.74
2023-03-26T23:19:44.804Z,21.75
2023-03-26T23:20:49.991Z,21.73
2023-03-26T23:21:55.182Z,21.73
2023-03-26T23:23:00.355Z,21.69
2023-03-26T23:24:05.566Z,21.74
2023-03-26T23:25:10.728Z,21.69
2023-03-26T23:26:15.986Z,21.69
2023-03-26T23:27:22.582Z,21.74
2023-03-26T23:28:27.997Z,21.73
2023-03-26T23:29:33.170Z,21.7
2023-03-26T23:30:38.347Z,21.74
2023-03-26T23:31:43.564Z,21.73
2023-03-26T23:32:48.913Z,21.72
2023-03-26T23:33:54.238Z,21.73
2023-03-26T23:34:59.435Z,21.68
2023-03-26T23:36:07.329Z,21.71
2023-03-26T23:37:13.298Z,21.71
2023-03-26T23:38:18.469Z,21.72
2023-03-26T23:39:23.672Z,21.72
2023-03-26T23:40:28.835Z,21.68
2023-03-26T23:41:34.058Z,21.71
2023-03-26T23:42:39.397Z,21.67
2023-03-26T23:43:54.115Z,21.71
2023-03-26T23:45:00.449Z,21.71
2023-03-26T23:46:05.746Z,21.71
2023-03-26T23:47:11.068Z,21.7
2023-03-26T23:48:16.283Z,21.66
2023-03-26T23:49:21.477Z,21.71
2023-03-26T23:50:26.668Z,21.71
2023-03-26T23:51:32.012Z,21.66
2023-03-26T23:52:37.280Z,21.7
2023-03-26T23:53:42.492Z,21.66
2023-03-26T23:54:47.666Z,21.68
2023-03-26T23:55:52.941Z,21.7
2023-03-26T23:56:58.235Z,21.66
2023-03-26T23:58:03.587Z,21.7
2023-03-26T23:59:08.795Z,21.7
